sensor_id;sensor_type;location;lat;lon;timestamp;temperature;humidity
780;DHT22;373;49.342;8.146;2023-10-13T00:00:27;20.70;54.60
780;DHT22;373;49.342;8.146;2023-10-13T00:02:57;20.50;99.90
780;DHT22;373;49.342;8.146;2023-10-13T00:05:27;20.60;99.90
780;DHT22;373;49.342;8.146;2023-10-13T00:07:54;20.40;1.00
780;DHT22;373;49.342;8.146;2023-10-13T00:10:21;20.50;99.90
780;DHT22;373;49.342;8.146;2023-10-13T00:12:48;20.50;99.90
780;DHT22;373;49.342;8.146;2023-10-13T00:15:16;20.70;97.40
780;DHT22;373;49.342;8.146;2023-10-13T00:17:55;20.60;99.90
780;DHT22;373;49.342;8.146;2023-10-13T00:20:23;20.70;71.70
780;DHT22;373;49.342;8.146;2023-10-13T00:23:01;20.60;74.00
780;DHT22;373;49.342;8.146;2023-10-13T00:25:28;20.70;70.50
780;DHT22;373;49.342;8.146;2023-10-13T00:28:09;20.70;1.00
780;DHT22;373;49.342;8.146;2023-10-13T00:30:36;20.80;1.00
780;DHT22;373;49.342;8.146;2023-10-13T00:33:05;20.60;96.50
780;DHT22;373;49.342;8.146;2023-10-13T00:35:35;20.40;99.90
780;DHT22;373;49.342;8.146;2023-10-13T00:38:03;20.00;99.90
780;DHT22;373;49.342;8.146;2023-10-13T00:40:39;20.20;99.90
780;DHT22;373;49.342;8.146;2023-10-13T00:43:10;20.00;1.00
780;DHT22;373;49.342;8.146;2023-10-13T00:46:01;19.80;99.90
780;DHT22;373;49.342;8.146;2023-10-13T00:48:41;19.50;1.00
780;DHT22;373;49.342;8.146;2023-10-13T00:51:10;19.40;99.90
780;DHT22;373;49.342;8.146;2023-10-13T00:53:44;19.30;1.00
780;DHT22;373;49.342;8.146;2023-10-13T00:56:13;19.50;1.00
780;DHT22;373;49.342;8.146;2023-10-13T00:58:48;19.40;99.90
780;DHT22;373;49.342;8.146;2023-10-13T01:01:16;19.60;99.90
780;DHT22;373;49.342;8.146;2023-10-13T01:03:50;19.70;1.00
780;DHT22;373;49.342;8.146;2023-10-13T01:06:21;19.70;1.00
780;DHT22;373;49.342;8.146;2023-10-13T01:08:58;19.90;99.90
780;DHT22;373;49.342;8.146;2023-10-13T01:11:38;20.10;99.90
780;DHT22;373;49.342;8.146;2023-10-13T01:14:05;20.10;1.00
780;DHT22;373;49.342;8.146;2023-10-13T01:16:31;20.20;99.90
780;DHT22;373;49.342;8.146;2023-10-13T01:19:01;19.90;99.90
780;DHT22;373;49.342;8.146;2023-10-13T01:21:31;19.80;1.00
780;DHT22;373;49.342;8.146;2023-10-13T01:24:00;19.60;1.00
780;DHT22;373;49.342;8.146;2023-10-13T01:26:27;19.50;1.00
780;DHT22;373;49.342;8.146;2023-10-13T01:28:57;19.60;1.00
780;DHT22;373;49.342;8.146;2023-10-13T01:31:23;19.50;99.90
780;DHT22;373;49.342;8.146;2023-10-13T01:33:56;19.60;99.90
780;DHT22;373;49.342;8.146;2023-10-13T01:36:26;19.80;1.00
780;DHT22;373;49.342;8.146;2023-10-13T01:38:54;19.90;1.00
780;DHT22;373;49.342;8.146;2023-10-13T01:41:22;20.00;99.90
780;DHT22;373;49.342;8.146;2023-10-13T01:43:49;20.20;1.00
780;DHT22;373;49.342;8.146;2023-10-13T01:46:16;20.30;99.90
780;DHT22;373;49.342;8.146;2023-10-13T01:48:45;20.30;99.90
780;DHT22;373;49.342;8.146;2023-10-13T01:51:12;20.20;99.90
780;DHT22;373;49.342;8.146;2023-10-13T01:53:38;20.30;99.90
780;DHT22;373;49.342;8.146;2023-10-13T01:56:08;20.30;99.90
780;DHT22;373;49.342;8.146;2023-10-13T01:58:38;20.20;99.90
780;DHT22;373;49.342;8.146;2023-10-13T02:01:07;20.00;1.00
780;DHT22;373;49.342;8.146;2023-10-13T02:03:34;19.90;99.90
780;DHT22;373;49.342;8.146;2023-10-13T02:06:08;20.00;99.90
780;DHT22;373;49.342;8.146;2023-10-13T02:08:37;20.00;1.00
780;DHT22;373;49.342;8.146;2023-10-13T02:11:09;20.10;1.00
780;DHT22;373;49.342;8.146;2023-10-13T02:13:38;19.60;99.90
780;DHT22;373;49.342;8.146;2023-10-13T02:16:14;19.40;1.00
780;DHT22;373;49.342;8.146;2023-10-13T02:18:44;19.40;1.00
780;DHT22;373;49.342;8.146;2023-10-13T02:21:17;19.50;99.90
780;DHT22;373;49.342;8.146;2023-10-13T02:23:44;19.40;99.90
780;DHT22;373;49.342;8.146;2023-10-13T02:26:25;19.30;99.90
780;DHT22;373;49.342;8.146;2023-10-13T02:28:58;19.30;1.00
780;DHT22;373;49.342;8.146;2023-10-13T02:31:27;19.60;1.00
780;DHT22;373;49.342;8.146;2023-10-13T02:33:53;19.20;1.00
780;DHT22;373;49.342;8.146;2023-10-13T02:36:21;19.10;99.90
780;DHT22;373;49.342;8.146;2023-10-13T02:38:48;19.10;44.30
780;DHT22;373;49.342;8.146;2023-10-13T02:41:18;19.30;1.00
780;DHT22;373;49.342;8.146;2023-10-13T02:43:52;19.40;99.90
780;DHT22;373;49.342;8.146;2023-10-13T02:46:21;19.50;99.90
780;DHT22;373;49.342;8.146;2023-10-13T02:48:49;19.40;99.90
780;DHT22;373;49.342;8.146;2023-10-13T02:51:20;19.40;1.00
780;DHT22;373;49.342;8.146;2023-10-13T02:53:51;19.40;1.00
780;DHT22;373;49.342;8.146;2023-10-13T02:56:19;19.30;99.90
780;DHT22;373;49.342;8.146;2023-10-13T02:58:47;19.30;1.00
780;DHT22;373;49.342;8.146;2023-10-13T03:01:21;19.40;1.00
780;DHT22;373;49.342;8.146;2023-10-13T03:03:50;19.60;1.00
780;DHT22;373;49.342;8.146;2023-10-13T03:06:21;19.60;1.00
780;DHT22;373;49.342;8.146;2023-10-13T03:08:49;19.40;99.90
780;DHT22;373;49.342;8.146;2023-10-13T03:11:18;19.50;18.90
780;DHT22;373;49.342;8.146;2023-10-13T03:13:48;19.80;99.90
780;DHT22;373;49.342;8.146;2023-10-13T03:16:18;19.80;99.90
780;DHT22;373;49.342;8.146;2023-10-13T03:18:47;19.70;99.90
780;DHT22;373;49.342;8.146;2023-10-13T03:21:20;19.60;99.90
780;DHT22;373;49.342;8.146;2023-10-13T03:23:58;19.60;99.90
780;DHT22;373;49.342;8.146;2023-10-13T03:26:33;19.50;1.00
780;DHT22;373;49.342;8.146;2023-10-13T03:29:03;19.40;1.00
780;DHT22;373;49.342;8.146;2023-10-13T03:31:34;19.50;1.00
780;DHT22;373;49.342;8.146;2023-10-13T03:34:05;19.40;1.00
780;DHT22;373;49.342;8.146;2023-10-13T03:36:37;19.30;1.00
780;DHT22;373;49.342;8.146;2023-10-13T03:39:23;19.30;21.50
780;DHT22;373;49.342;8.146;2023-10-13T03:41:56;19.40;1.00
780;DHT22;373;49.342;8.146;2023-10-13T03:44:23;19.50;1.00
780;DHT22;373;49.342;8.146;2023-10-13T03:46:56;19.60;1.00
780;DHT22;373;49.342;8.146;2023-10-13T03:49:35;19.60;99.90
780;DHT22;373;49.342;8.146;2023-10-13T03:52:04;19.50;1.00
780;DHT22;373;49.342;8.146;2023-10-13T03:54:32;19.30;1.00
780;DHT22;373;49.342;8.146;2023-10-13T03:57:01;18.90;1.00
780;DHT22;373;49.342;8.146;2023-10-13T03:59:37;18.80;99.90
780;DHT22;373;49.342;8.146;2023-10-13T04:02:04;18.70;99.90
780;DHT22;373;49.342;8.146;2023-10-13T04:04:39;18.50;99.90
780;DHT22;373;49.342;8.146;2023-10-13T04:07:14;18.40;1.00
780;DHT22;373;49.342;8.146;2023-10-13T04:09:55;18.20;99.90
780;DHT22;373;49.342;8.146;2023-10-13T04:12:57;18.30;99.90
780;DHT22;373;49.342;8.146;2023-10-13T04:15:43;18.60;99.90
780;DHT22;373;49.342;8.146;2023-10-13T04:18:28;18.70;1.00
780;DHT22;373;49.342;8.146;2023-10-13T04:21:17;18.80;99.90
780;DHT22;373;49.342;8.146;2023-10-13T04:24:06;18.90;1.00
780;DHT22;373;49.342;8.146;2023-10-13T04:26:53;19.00;99.90
780;DHT22;373;49.342;8.146;2023-10-13T04:29:40;19.00;1.00
780;DHT22;373;49.342;8.146;2023-10-13T04:32:18;19.10;1.00
780;DHT22;373;49.342;8.146;2023-10-13T04:34:55;19.10;1.00
780;DHT22;373;49.342;8.146;2023-10-13T04:37:26;19.20;1.00
780;DHT22;373;49.342;8.146;2023-10-13T04:39:55;19.20;99.90
780;DHT22;373;49.342;8.146;2023-10-13T04:42:32;19.40;99.90
780;DHT22;373;49.342;8.146;2023-10-13T04:45:17;19.40;20.20
780;DHT22;373;49.342;8.146;2023-10-13T04:48:04;19.40;1.00
780;DHT22;373;49.342;8.146;2023-10-13T04:50:59;19.50;1.00
780;DHT22;373;49.342;8.146;2023-10-13T04:53:46;19.30;1.00
780;DHT22;373;49.342;8.146;2023-10-13T04:56:36;19.40;1.00
780;DHT22;373;49.342;8.146;2023-10-13T04:59:21;19.20;1.00
780;DHT22;373;49.342;8.146;2023-10-13T05:02:24;19.30;1.00
780;DHT22;373;49.342;8.146;2023-10-13T05:05:07;19.10;1.00
780;DHT22;373;49.342;8.146;2023-10-13T05:08:11;18.70;1.00
780;DHT22;373;49.342;8.146;2023-10-13T05:11:03;18.80;1.00
780;DHT22;373;49.342;8.146;2023-10-13T05:13:48;18.70;1.00
780;DHT22;373;49.342;8.146;2023-10-13T05:16:32;18.90;1.00
780;DHT22;373;49.342;8.146;2023-10-13T05:19:17;18.70;1.00
780;DHT22;373;49.342;8.146;2023-10-13T05:22:01;18.80;1.00
780;DHT22;373;49.342;8.146;2023-10-13T05:24:46;18.80;99.90
780;DHT22;373;49.342;8.146;2023-10-13T05:27:31;18.70;1.00
780;DHT22;373;49.342;8.146;2023-10-13T05:30:16;18.70;99.90
780;DHT22;373;49.342;8.146;2023-10-13T05:33:01;18.40;99.90
780;DHT22;373;49.342;8.146;2023-10-13T05:35:46;17.60;41.20
780;DHT22;373;49.342;8.146;2023-10-13T05:38:30;17.70;1.00
780;DHT22;373;49.342;8.146;2023-10-13T05:41:16;17.60;99.90
780;DHT22;373;49.342;8.146;2023-10-13T05:44:13;17.80;1.00
780;DHT22;373;49.342;8.146;2023-10-13T05:46:58;17.90;1.00
780;DHT22;373;49.342;8.146;2023-10-13T05:49:49;17.90;99.90
780;DHT22;373;49.342;8.146;2023-10-13T05:52:16;18.10;1.00
780;DHT22;373;49.342;8.146;2023-10-13T05:55:06;18.20;99.90
780;DHT22;373;49.342;8.146;2023-10-13T05:57:51;18.20;99.90
780;DHT22;373;49.342;8.146;2023-10-13T06:00:41;18.30;1.00
780;DHT22;373;49.342;8.146;2023-10-13T06:03:25;17.90;1.00
780;DHT22;373;49.342;8.146;2023-10-13T06:06:10;18.10;1.00
780;DHT22;373;49.342;8.146;2023-10-13T06:08:54;18.20;1.00
780;DHT22;373;49.342;8.146;2023-10-13T06:11:39;18.40;99.90
780;DHT22;373;49.342;8.146;2023-10-13T06:14:23;18.10;1.00
780;DHT22;373;49.342;8.146;2023-10-13T06:17:10;18.00;1.00
780;DHT22;373;49.342;8.146;2023-10-13T06:19:54;17.90;1.00
780;DHT22;373;49.342;8.146;2023-10-13T06:22:38;18.10;99.90
780;DHT22;373;49.342;8.146;2023-10-13T06:25:23;17.80;29.40
780;DHT22;373;49.342;8.146;2023-10-13T06:28:08;17.70;99.90
780;DHT22;373;49.342;8.146;2023-10-13T06:30:57;17.90;1.00
780;DHT22;373;49.342;8.146;2023-10-13T06:33:28;17.80;99.90
780;DHT22;373;49.342;8.146;2023-10-13T06:35:56;18.30;66.20
780;DHT22;373;49.342;8.146;2023-10-13T06:38:24;18.70;1.00
780;DHT22;373;49.342;8.146;2023-10-13T06:40:56;18.90;1.00
780;DHT22;373;49.342;8.146;2023-10-13T06:43:24;19.10;1.00
780;DHT22;373;49.342;8.146;2023-10-13T06:45:51;19.40;46.00
780;DHT22;373;49.342;8.146;2023-10-13T06:48:28;19.60;1.00
780;DHT22;373;49.342;8.146;2023-10-13T06:50:58;19.60;1.00
780;DHT22;373;49.342;8.146;2023-10-13T06:53:30;20.20;99.90
780;DHT22;373;49.342;8.146;2023-10-13T06:56:05;20.30;99.90
780;DHT22;373;49.342;8.146;2023-10-13T06:58:33;20.50;99.90
780;DHT22;373;49.342;8.146;2023-10-13T07:01:00;20.50;92.90
780;DHT22;373;49.342;8.146;2023-10-13T07:03:28;20.50;75.90
780;DHT22;373;49.342;8.146;2023-10-13T07:05:56;20.50;1.00
780;DHT22;373;49.342;8.146;2023-10-13T07:08:25;20.40;90.10
780;DHT22;373;49.342;8.146;2023-10-13T07:10:53;21.00;1.00
780;DHT22;373;49.342;8.146;2023-10-13T07:13:31;21.30;1.00
780;DHT22;373;49.342;8.146;2023-10-13T07:16:02;21.60;1.00
780;DHT22;373;49.342;8.146;2023-10-13T07:18:35;21.70;1.00
780;DHT22;373;49.342;8.146;2023-10-13T07:21:08;22.50;1.00
780;DHT22;373;49.342;8.146;2023-10-13T07:23:36;22.80;1.00
780;DHT22;373;49.342;8.146;2023-10-13T07:26:05;23.20;99.90
780;DHT22;373;49.342;8.146;2023-10-13T07:28:34;23.10;99.90
780;DHT22;373;49.342;8.146;2023-10-13T07:31:12;23.20;99.90
780;DHT22;373;49.342;8.146;2023-10-13T07:33:41;23.70;99.90
780;DHT22;373;49.342;8.146;2023-10-13T07:36:10;23.50;99.90
780;DHT22;373;49.342;8.146;2023-10-13T07:38:44;23.90;99.90
780;DHT22;373;49.342;8.146;2023-10-13T07:41:14;24.30;99.90
780;DHT22;373;49.342;8.146;2023-10-13T07:43:43;24.30;99.90
780;DHT22;373;49.342;8.146;2023-10-13T07:46:11;24.60;99.90
780;DHT22;373;49.342;8.146;2023-10-13T07:48:39;25.20;99.90
780;DHT22;373;49.342;8.146;2023-10-13T07:51:12;25.40;99.90
780;DHT22;373;49.342;8.146;2023-10-13T07:53:42;25.20;99.90
780;DHT22;373;49.342;8.146;2023-10-13T07:56:10;25.60;99.90
780;DHT22;373;49.342;8.146;2023-10-13T07:58:38;25.50;99.90
780;DHT22;373;49.342;8.146;2023-10-13T08:01:18;26.20;99.90
780;DHT22;373;49.342;8.146;2023-10-13T08:03:45;26.20;99.90
780;DHT22;373;49.342;8.146;2023-10-13T08:06:15;25.70;99.90
780;DHT22;373;49.342;8.146;2023-10-13T08:08:47;25.90;99.90
780;DHT22;373;49.342;8.146;2023-10-13T08:11:19;26.40;99.90
780;DHT22;373;49.342;8.146;2023-10-13T08:13:57;26.50;99.90
780;DHT22;373;49.342;8.146;2023-10-13T08:16:28;26.90;99.90
780;DHT22;373;49.342;8.146;2023-10-13T08:19:12;26.80;99.90
780;DHT22;373;49.342;8.146;2023-10-13T08:21:43;26.10;99.90
780;DHT22;373;49.342;8.146;2023-10-13T08:24:17;26.50;99.90
780;DHT22;373;49.342;8.146;2023-10-13T08:26:51;26.60;99.90
780;DHT22;373;49.342;8.146;2023-10-13T08:29:24;27.10;99.90
780;DHT22;373;49.342;8.146;2023-10-13T08:32:08;26.30;99.90
780;DHT22;373;49.342;8.146;2023-10-13T08:34:49;26.60;99.90
780;DHT22;373;49.342;8.146;2023-10-13T08:37:36;26.20;99.90
780;DHT22;373;49.342;8.146;2023-10-13T08:40:27;25.40;99.90
780;DHT22;373;49.342;8.146;2023-10-13T08:43:12;25.40;99.90
780;DHT22;373;49.342;8.146;2023-10-13T08:45:40;25.80;99.90
780;DHT22;373;49.342;8.146;2023-10-13T08:48:21;25.90;99.90
780;DHT22;373;49.342;8.146;2023-10-13T08:50:52;26.20;98.90
780;DHT22;373;49.342;8.146;2023-10-13T08:53:24;26.10;97.00
780;DHT22;373;49.342;8.146;2023-10-13T08:55:59;25.80;87.10
780;DHT22;373;49.342;8.146;2023-10-13T08:58:33;25.30;82.50
780;DHT22;373;49.342;8.146;2023-10-13T09:01:17;24.90;81.80
780;DHT22;373;49.342;8.146;2023-10-13T09:03:58;24.80;91.60
780;DHT22;373;49.342;8.146;2023-10-13T09:06:47;25.20;88.70
780;DHT22;373;49.342;8.146;2023-10-13T09:09:25;24.60;99.90
780;DHT22;373;49.342;8.146;2023-10-13T09:12:00;24.40;99.90
780;DHT22;373;49.342;8.146;2023-10-13T09:14:35;24.30;99.90
780;DHT22;373;49.342;8.146;2023-10-13T09:17:07;23.80;99.90
780;DHT22;373;49.342;8.146;2023-10-13T09:19:45;23.70;99.90
780;DHT22;373;49.342;8.146;2023-10-13T09:22:24;23.50;99.90
780;DHT22;373;49.342;8.146;2023-10-13T09:25:01;23.90;99.90
780;DHT22;373;49.342;8.146;2023-10-13T09:27:30;24.50;99.90
780;DHT22;373;49.342;8.146;2023-10-13T09:29:59;24.70;99.90
780;DHT22;373;49.342;8.146;2023-10-13T09:32:36;25.00;99.90
780;DHT22;373;49.342;8.146;2023-10-13T09:35:17;25.20;99.90
780;DHT22;373;49.342;8.146;2023-10-13T09:37:44;25.70;91.20
780;DHT22;373;49.342;8.146;2023-10-13T09:40:16;26.30;78.20
780;DHT22;373;49.342;8.146;2023-10-13T09:42:55;26.70;71.30
780;DHT22;373;49.342;8.146;2023-10-13T09:45:28;27.20;59.70
780;DHT22;373;49.342;8.146;2023-10-13T09:48:00;27.70;50.20
780;DHT22;373;49.342;8.146;2023-10-13T09:50:36;27.30;45.70
780;DHT22;373;49.342;8.146;2023-10-13T09:53:04;27.70;43.90
780;DHT22;373;49.342;8.146;2023-10-13T09:55:40;27.50;37.80
780;DHT22;373;49.342;8.146;2023-10-13T09:58:12;28.20;37.00
780;DHT22;373;49.342;8.146;2023-10-13T10:00:43;28.10;31.00
780;DHT22;373;49.342;8.146;2023-10-13T10:03:12;28.20;27.90
780;DHT22;373;49.342;8.146;2023-10-13T10:05:58;28.30;25.70
780;DHT22;373;49.342;8.146;2023-10-13T10:08:32;28.90;21.00
780;DHT22;373;49.342;8.146;2023-10-13T10:14:16;29.00;15.80
780;DHT22;373;49.342;8.146;2023-10-13T10:16:53;28.90;13.70
780;DHT22;373;49.342;8.146;2023-10-13T10:19:25;28.60;10.70
780;DHT22;373;49.342;8.146;2023-10-13T10:22:01;27.80;10.70
780;DHT22;373;49.342;8.146;2023-10-13T10:24:30;28.10;10.50
780;DHT22;373;49.342;8.146;2023-10-13T10:27:00;28.80;8.90
780;DHT22;373;49.342;8.146;2023-10-13T10:29:30;28.00;5.30
780;DHT22;373;49.342;8.146;2023-10-13T10:31:58;27.60;6.70
780;DHT22;373;49.342;8.146;2023-10-13T10:34:30;27.80;6.80
780;DHT22;373;49.342;8.146;2023-10-13T10:36:59;28.00;8.30
780;DHT22;373;49.342;8.146;2023-10-13T10:39:33;28.20;7.80
780;DHT22;373;49.342;8.146;2023-10-13T10:42:13;28.30;6.70
780;DHT22;373;49.342;8.146;2023-10-13T10:44:43;28.90;6.10
780;DHT22;373;49.342;8.146;2023-10-13T10:47:14;30.20;4.50
780;DHT22;373;49.342;8.146;2023-10-13T10:49:45;30.90;1.60
780;DHT22;373;49.342;8.146;2023-10-13T10:52:17;31.10;1.00
780;DHT22;373;49.342;8.146;2023-10-13T10:54:45;31.70;1.00
780;DHT22;373;49.342;8.146;2023-10-13T10:57:19;32.40;1.00
780;DHT22;373;49.342;8.146;2023-10-13T10:59:46;32.40;1.00
780;DHT22;373;49.342;8.146;2023-10-13T11:02:30;32.70;1.00
780;DHT22;373;49.342;8.146;2023-10-13T11:04:57;33.60;1.00
780;DHT22;373;49.342;8.146;2023-10-13T11:07:26;33.80;1.00
780;DHT22;373;49.342;8.146;2023-10-13T11:09:54;32.50;1.00
780;DHT22;373;49.342;8.146;2023-10-13T11:12:34;31.30;1.00
780;DHT22;373;49.342;8.146;2023-10-13T11:15:03;31.80;1.00
780;DHT22;373;49.342;8.146;2023-10-13T11:17:38;31.40;1.00
780;DHT22;373;49.342;8.146;2023-10-13T11:20:10;31.30;1.00
780;DHT22;373;49.342;8.146;2023-10-13T11:22:45;30.40;1.00
780;DHT22;373;49.342;8.146;2023-10-13T11:25:21;29.50;1.00
780;DHT22;373;49.342;8.146;2023-10-13T11:27:51;29.90;1.00
780;DHT22;373;49.342;8.146;2023-10-13T11:30:26;30.50;1.00
780;DHT22;373;49.342;8.146;2023-10-13T11:32:58;30.70;1.00
780;DHT22;373;49.342;8.146;2023-10-13T11:35:25;31.00;1.00
780;DHT22;373;49.342;8.146;2023-10-13T11:37:55;30.70;1.00
780;DHT22;373;49.342;8.146;2023-10-13T11:40:29;30.10;1.00
780;DHT22;373;49.342;8.146;2023-10-13T11:43:35;30.20;1.00
780;DHT22;373;49.342;8.146;2023-10-13T11:46:21;29.60;1.00
780;DHT22;373;49.342;8.146;2023-10-13T11:49:06;29.50;1.00
780;DHT22;373;49.342;8.146;2023-10-13T11:51:44;28.50;1.00
780;DHT22;373;49.342;8.146;2023-10-13T11:54:12;28.70;1.00
780;DHT22;373;49.342;8.146;2023-10-13T11:56:40;28.60;1.00
780;DHT22;373;49.342;8.146;2023-10-13T11:59:09;28.20;1.00
780;DHT22;373;49.342;8.146;2023-10-13T12:01:44;28.00;1.00
780;DHT22;373;49.342;8.146;2023-10-13T12:04:28;27.90;1.00
780;DHT22;373;49.342;8.146;2023-10-13T12:07:07;28.10;1.00
780;DHT22;373;49.342;8.146;2023-10-13T12:09:46;28.20;1.00
780;DHT22;373;49.342;8.146;2023-10-13T12:12:32;28.60;1.00
780;DHT22;373;49.342;8.146;2023-10-13T12:15:08;28.80;1.00
780;DHT22;373;49.342;8.146;2023-10-13T12:17:51;29.10;1.00
780;DHT22;373;49.342;8.146;2023-10-13T12:20:18;29.50;1.00
780;DHT22;373;49.342;8.146;2023-10-13T12:22:59;29.30;1.00
780;DHT22;373;49.342;8.146;2023-10-13T12:25:38;29.30;1.00
780;DHT22;373;49.342;8.146;2023-10-13T12:28:22;29.10;1.00
780;DHT22;373;49.342;8.146;2023-10-13T12:30:55;29.10;1.00
780;DHT22;373;49.342;8.146;2023-10-13T12:33:24;29.30;1.00
780;DHT22;373;49.342;8.146;2023-10-13T12:35:56;29.50;1.00
780;DHT22;373;49.342;8.146;2023-10-13T12:38:41;29.00;1.00
780;DHT22;373;49.342;8.146;2023-10-13T12:41:27;28.80;1.00
780;DHT22;373;49.342;8.146;2023-10-13T12:44:11;28.90;1.00
780;DHT22;373;49.342;8.146;2023-10-13T12:46:57;28.70;1.00
780;DHT22;373;49.342;8.146;2023-10-13T12:49:42;28.90;1.00
780;DHT22;373;49.342;8.146;2023-10-13T12:52:32;29.00;1.00
780;DHT22;373;49.342;8.146;2023-10-13T12:54:59;29.00;1.00
780;DHT22;373;49.342;8.146;2023-10-13T12:57:33;29.20;1.00
780;DHT22;373;49.342;8.146;2023-10-13T13:00:00;29.00;1.00
780;DHT22;373;49.342;8.146;2023-10-13T13:02:43;28.90;1.00
780;DHT22;373;49.342;8.146;2023-10-13T13:05:10;28.90;1.00
780;DHT22;373;49.342;8.146;2023-10-13T13:07:39;28.90;1.00
780;DHT22;373;49.342;8.146;2023-10-13T13:10:13;28.90;1.00
780;DHT22;373;49.342;8.146;2023-10-13T13:12:40;29.00;1.00
780;DHT22;373;49.342;8.146;2023-10-13T13:15:08;28.80;1.00
780;DHT22;373;49.342;8.146;2023-10-13T13:17:36;28.90;1.00
780;DHT22;373;49.342;8.146;2023-10-13T13:20:07;28.90;1.00
780;DHT22;373;49.342;8.146;2023-10-13T13:22:51;28.80;1.00
780;DHT22;373;49.342;8.146;2023-10-13T13:25:19;28.60;1.00
780;DHT22;373;49.342;8.146;2023-10-13T13:27:51;28.80;1.00
780;DHT22;373;49.342;8.146;2023-10-13T13:30:18;28.60;1.00
780;DHT22;373;49.342;8.146;2023-10-13T13:32:48;28.20;1.00
780;DHT22;373;49.342;8.146;2023-10-13T13:35:18;28.10;1.00
780;DHT22;373;49.342;8.146;2023-10-13T13:37:45;27.90;1.00
780;DHT22;373;49.342;8.146;2023-10-13T13:40:13;27.90;1.00
780;DHT22;373;49.342;8.146;2023-10-13T13:42:41;27.80;1.00
780;DHT22;373;49.342;8.146;2023-10-13T13:45:12;27.90;1.00
780;DHT22;373;49.342;8.146;2023-10-13T13:47:48;28.10;1.00
780;DHT22;373;49.342;8.146;2023-10-13T13:50:21;28.10;1.00
780;DHT22;373;49.342;8.146;2023-10-13T13:52:53;28.20;1.00
780;DHT22;373;49.342;8.146;2023-10-13T13:55:22;28.20;1.00
780;DHT22;373;49.342;8.146;2023-10-13T13:57:52;28.10;1.00
780;DHT22;373;49.342;8.146;2023-10-13T14:00:19;28.10;1.00
780;DHT22;373;49.342;8.146;2023-10-13T14:03:03;28.20;1.00
780;DHT22;373;49.342;8.146;2023-10-13T14:05:32;28.50;1.00
780;DHT22;373;49.342;8.146;2023-10-13T14:07:59;28.30;1.00
780;DHT22;373;49.342;8.146;2023-10-13T14:10:26;28.20;1.00
780;DHT22;373;49.342;8.146;2023-10-13T14:13:19;28.20;1.00
780;DHT22;373;49.342;8.146;2023-10-13T14:15:48;28.20;1.00
780;DHT22;373;49.342;8.146;2023-10-13T14:18:22;28.20;1.00
780;DHT22;373;49.342;8.146;2023-10-13T14:20:57;28.10;1.00
780;DHT22;373;49.342;8.146;2023-10-13T14:23:29;28.00;1.00
780;DHT22;373;49.342;8.146;2023-10-13T14:25:58;28.20;1.00
780;DHT22;373;49.342;8.146;2023-10-13T14:28:25;28.30;1.00
780;DHT22;373;49.342;8.146;2023-10-13T14:31:04;28.40;1.00
780;DHT22;373;49.342;8.146;2023-10-13T14:33:35;28.40;1.00
780;DHT22;373;49.342;8.146;2023-10-13T14:36:04;28.40;1.00
780;DHT22;373;49.342;8.146;2023-10-13T14:38:31;28.40;1.00
780;DHT22;373;49.342;8.146;2023-10-13T14:40:58;28.30;1.00
780;DHT22;373;49.342;8.146;2023-10-13T14:43:25;28.40;1.00
780;DHT22;373;49.342;8.146;2023-10-13T14:45:53;28.40;1.00
780;DHT22;373;49.342;8.146;2023-10-13T14:48:20;28.40;1.00
780;DHT22;373;49.342;8.146;2023-10-13T14:50:49;28.40;1.00
780;DHT22;373;49.342;8.146;2023-10-13T14:53:18;28.20;1.00
780;DHT22;373;49.342;8.146;2023-10-13T14:55:47;28.10;1.00
780;DHT22;373;49.342;8.146;2023-10-13T14:58:17;28.00;1.00
780;DHT22;373;49.342;8.146;2023-10-13T15:00:44;28.10;1.00
780;DHT22;373;49.342;8.146;2023-10-13T15:03:11;28.10;1.00
780;DHT22;373;49.342;8.146;2023-10-13T15:05:39;28.20;1.00
780;DHT22;373;49.342;8.146;2023-10-13T15:08:09;28.10;1.00
780;DHT22;373;49.342;8.146;2023-10-13T15:10:37;27.90;1.00
780;DHT22;373;49.342;8.146;2023-10-13T15:13:05;27.70;1.00
780;DHT22;373;49.342;8.146;2023-10-13T15:15:33;27.70;1.00
780;DHT22;373;49.342;8.146;2023-10-13T15:18:01;27.60;1.00
780;DHT22;373;49.342;8.146;2023-10-13T15:20:28;27.50;1.00
780;DHT22;373;49.342;8.146;2023-10-13T15:22:55;27.60;1.00
780;DHT22;373;49.342;8.146;2023-10-13T15:25:26;27.50;1.00
780;DHT22;373;49.342;8.146;2023-10-13T15:27:59;27.50;1.00
780;DHT22;373;49.342;8.146;2023-10-13T15:30:28;27.50;1.00
780;DHT22;373;49.342;8.146;2023-10-13T15:33:10;27.50;1.00
780;DHT22;373;49.342;8.146;2023-10-13T15:35:38;27.50;1.00
780;DHT22;373;49.342;8.146;2023-10-13T15:38:09;27.40;1.00
780;DHT22;373;49.342;8.146;2023-10-13T15:40:41;27.40;1.00
780;DHT22;373;49.342;8.146;2023-10-13T15:43:10;27.40;1.00
780;DHT22;373;49.342;8.146;2023-10-13T15:45:38;27.30;1.00
780;DHT22;373;49.342;8.146;2023-10-13T15:48:09;27.30;1.00
780;DHT22;373;49.342;8.146;2023-10-13T15:50:38;27.40;1.00
780;DHT22;373;49.342;8.146;2023-10-13T15:53:09;27.60;1.00
780;DHT22;373;49.342;8.146;2023-10-13T15:55:39;27.70;1.00
780;DHT22;373;49.342;8.146;2023-10-13T15:58:06;27.80;1.00
780;DHT22;373;49.342;8.146;2023-10-13T16:00:36;27.70;1.00
780;DHT22;373;49.342;8.146;2023-10-13T16:03:04;27.70;1.00
780;DHT22;373;49.342;8.146;2023-10-13T16:05:37;28.10;1.00
780;DHT22;373;49.342;8.146;2023-10-13T16:08:06;28.10;1.00
780;DHT22;373;49.342;8.146;2023-10-13T16:10:38;28.10;1.00
780;DHT22;373;49.342;8.146;2023-10-13T16:13:05;28.10;1.00
780;DHT22;373;49.342;8.146;2023-10-13T16:15:37;27.80;1.00
780;DHT22;373;49.342;8.146;2023-10-13T16:18:08;27.40;1.00
780;DHT22;373;49.342;8.146;2023-10-13T16:20:36;27.30;1.00
780;DHT22;373;49.342;8.146;2023-10-13T16:23:03;27.10;1.00
780;DHT22;373;49.342;8.146;2023-10-13T16:25:32;27.00;1.00
780;DHT22;373;49.342;8.146;2023-10-13T16:27:59;27.00;1.00
780;DHT22;373;49.342;8.146;2023-10-13T16:30:27;27.10;1.00
780;DHT22;373;49.342;8.146;2023-10-13T16:32:56;27.10;1.00
780;DHT22;373;49.342;8.146;2023-10-13T16:35:23;27.20;1.00
780;DHT22;373;49.342;8.146;2023-10-13T16:37:50;27.10;1.00
780;DHT22;373;49.342;8.146;2023-10-13T16:40:18;26.80;1.00
780;DHT22;373;49.342;8.146;2023-10-13T16:42:46;26.70;1.00
780;DHT22;373;49.342;8.146;2023-10-13T16:45:14;26.80;1.00
780;DHT22;373;49.342;8.146;2023-10-13T16:47:42;26.60;1.00
780;DHT22;373;49.342;8.146;2023-10-13T16:50:11;26.40;1.00
780;DHT22;373;49.342;8.146;2023-10-13T16:52:40;25.90;1.00
780;DHT22;373;49.342;8.146;2023-10-13T16:55:08;25.60;1.00
780;DHT22;373;49.342;8.146;2023-10-13T16:57:35;25.40;1.00
780;DHT22;373;49.342;8.146;2023-10-13T17:00:05;24.90;1.00
780;DHT22;373;49.342;8.146;2023-10-13T17:02:33;24.70;1.00
780;DHT22;373;49.342;8.146;2023-10-13T17:05:00;24.40;1.00
780;DHT22;373;49.342;8.146;2023-10-13T17:07:29;24.20;1.00
780;DHT22;373;49.342;8.146;2023-10-13T17:09:57;24.00;1.00
780;DHT22;373;49.342;8.146;2023-10-13T17:12:24;23.80;1.00
780;DHT22;373;49.342;8.146;2023-10-13T17:14:53;23.60;1.00
780;DHT22;373;49.342;8.146;2023-10-13T17:17:23;23.50;1.00
780;DHT22;373;49.342;8.146;2023-10-13T17:19:51;23.40;1.00
780;DHT22;373;49.342;8.146;2023-10-13T17:22:19;23.30;1.00
780;DHT22;373;49.342;8.146;2023-10-13T17:24:48;23.40;1.00
780;DHT22;373;49.342;8.146;2023-10-13T17:27:15;23.40;1.00
780;DHT22;373;49.342;8.146;2023-10-13T17:29:43;23.40;1.00